createdAt,value
2018-05-02T00:05:39.996Z,6.40
2018-05-02T00:10:50.678Z,6.50
2018-05-02T00:16:01.154Z,6.40
2018-05-02T01:25:58.975Z,5.80
2018-05-02T01:31:10.243Z,5.70
2018-05-02T01:41:31.619Z,5.70
2018-05-02T01:54:34.974Z,5.60
2018-05-02T01:59:45.243Z,5.70
2018-05-02T02:10:06.931Z,5.60
2018-05-02T02:38:35.885Z,5.50
2018-05-02T02:43:47.191Z,5.50
2018-05-02T03:33:02.492Z,5.10
2018-05-02T03:40:49.028Z,5.20
2018-05-02T03:45:59.496Z,5.10
2018-05-02T04:02:42.876Z,5.10
2018-05-02T04:07:25.398Z,5.10
2018-05-02T04:38:31.342Z,5.30
2018-05-02T04:46:17.187Z,5.40
2018-05-02T05:01:49.578Z,5.70
2018-05-02T05:07:00.023Z,5.80
2018-05-02T05:17:21.654Z,6.10
2018-05-02T05:27:43.177Z,6.40
2018-05-02T05:32:53.898Z,6.50
2018-05-02T05:43:15.439Z,7.00
2018-05-02T05:48:26.106Z,7.10
2018-05-02T05:53:36.574Z,7.40
2018-05-02T05:58:47.878Z,7.60
2018-05-02T06:03:58.274Z,7.80
2018-05-02T06:37:39.244Z,9.40
2018-05-02T06:53:11.815Z,10.00
2018-05-02T07:00:58.827Z,10.30
2018-05-02T07:16:32.058Z,10.90
2018-05-02T07:26:53.387Z,11.30
2018-05-02T08:08:21.926Z,12.90
2018-05-02T08:13:32.627Z,13.10
2018-05-02T08:23:54.801Z,13.60
2018-05-02T08:29:05.890Z,13.80
2018-05-02T08:36:52.038Z,13.90
2018-05-02T08:57:35.782Z,14.20
2018-05-02T09:07:57.378Z,14.70
2018-05-02T09:15:44.298Z,14.50
2018-05-02T09:49:58.018Z,16.40
2018-05-02T09:52:31.588Z,16.30
2018-05-02T09:55:05.082Z,16.40
2018-05-02T09:57:39.525Z,16.50
2018-05-02T10:00:13.376Z,16.60
2018-05-02T10:02:48.583Z,16.60
2018-05-02T10:05:22.165Z,16.60
2018-05-02T10:07:56.826Z,16.80
2018-05-02T10:10:30.462Z,16.80
2018-05-02T10:13:04.218Z,16.90
2018-05-02T10:15:38.002Z,16.90
2018-05-02T10:18:11.570Z,17.00
2018-05-02T10:20:45.911Z,16.90
2018-05-02T10:23:19.831Z,16.90
2018-05-02T10:25:53.634Z,17.30
2018-05-02T10:28:27.142Z,17.10
2018-05-02T10:31:00.836Z,17.20
2018-05-02T10:33:34.443Z,17.20
2018-05-02T10:36:08.044Z,17.40
2018-05-02T10:38:42.542Z,17.70
2018-05-02T10:41:16.127Z,17.70
2018-05-02T10:43:49.845Z,17.80
2018-05-02T10:46:23.470Z,17.70
2018-05-02T10:48:57.081Z,17.70
2018-05-02T10:51:30.675Z,17.80
2018-05-02T10:54:04.266Z,17.90
2018-05-02T10:56:38.687Z,18.20
2018-05-02T10:59:12.378Z,18.20
2018-05-02T11:01:46.738Z,18.20
2018-05-02T11:04:20.389Z,18.10
2018-05-02T11:06:53.979Z,18.10
2018-05-02T11:09:27.511Z,18.10
2018-05-02T11:12:01.005Z,18.20
2018-05-02T11:14:34.710Z,18.20
2018-05-02T11:17:08.489Z,18.00
2018-05-02T11:19:42.038Z,18.00
2018-05-02T11:22:15.538Z,18.10
2018-05-02T11:24:50.274Z,18.10
2018-05-02T11:27:23.818Z,18.20
2018-05-02T11:29:57.551Z,18.30
2018-05-02T11:32:31.150Z,18.60
2018-05-02T11:35:04.970Z,18.80
2018-05-02T11:37:38.966Z,18.90
2018-05-02T11:40:12.767Z,18.70
2018-05-02T11:42:46.400Z,18.80
2018-05-02T11:45:19.966Z,18.50
2018-05-02T11:47:53.973Z,19.10
2018-05-02T11:50:27.792Z,19.30
2018-05-02T11:53:01.663Z,19.20
2018-05-02T11:55:36.838Z,18.90
2018-05-02T11:58:10.507Z,18.90
2018-05-02T12:00:44.150Z,19.20
2018-05-02T12:03:17.701Z,19.30
2018-05-02T12:05:51.360Z,19.40
2018-05-02T12:08:25.043Z,19.70
2018-05-02T12:10:58.842Z,19.80
2018-05-02T12:13:32.518Z,19.80
2018-05-02T12:16:06.319Z,19.80
2018-05-02T12:18:39.753Z,20.00
2018-05-02T12:21:13.458Z,20.10
2018-05-02T12:23:47.138Z,19.80
2018-05-02T12:26:20.866Z,20.10
2018-05-02T12:28:54.462Z,20.30
2018-05-02T12:31:28.062Z,20.70
2018-05-02T12:34:01.739Z,20.20
2018-05-02T12:36:35.279Z,20.50
2018-05-02T12:39:08.937Z,20.40
2018-05-02T12:41:42.671Z,20.40
2018-05-02T12:44:16.346Z,20.10
2018-05-02T12:46:49.958Z,20.10
2018-05-02T12:49:23.682Z,20.20
2018-05-02T12:51:57.370Z,20.40
2018-05-02T12:54:30.966Z,20.30
2018-05-02T12:57:04.472Z,20.30
2018-05-02T12:59:38.046Z,20.30
2018-05-02T13:02:12.499Z,20.50
2018-05-02T13:04:46.307Z,20.50
2018-05-02T13:07:19.910Z,20.30
2018-05-02T13:09:53.718Z,20.20
2018-05-02T13:12:27.978Z,19.80
2018-05-02T13:15:01.792Z,19.80
2018-05-02T13:17:35.226Z,19.90
2018-05-02T13:20:08.783Z,20.20
2018-05-02T13:22:42.337Z,20.30
2018-05-02T13:25:16.142Z,20.00
2018-05-02T13:27:50.626Z,19.90
2018-05-02T13:30:25.183Z,20.10
2018-05-02T13:32:59.467Z,20.40
2018-05-02T13:35:33.206Z,20.40
2018-05-02T13:38:06.903Z,20.40
2018-05-02T13:40:40.486Z,20.40
2018-05-02T13:43:15.028Z,20.40
2018-05-02T13:45:48.834Z,20.30
2018-05-02T13:48:23.462Z,20.50
2018-05-02T13:50:57.879Z,20.20
2018-05-02T13:53:32.186Z,20.20
2018-05-02T13:56:05.895Z,20.20
2018-05-02T13:58:40.385Z,20.00
2018-05-02T14:01:15.553Z,20.10
2018-05-02T14:03:49.978Z,20.10
2018-05-02T14:06:23.810Z,20.10
2018-05-02T14:08:57.587Z,20.10
2018-05-02T14:11:31.282Z,20.10
2018-05-02T14:14:04.863Z,20.00
2018-05-02T14:16:38.608Z,19.90
2018-05-02T14:19:13.219Z,19.90
2018-05-02T14:21:46.907Z,19.90
2018-05-02T14:24:20.531Z,19.90
2018-05-02T14:26:54.038Z,19.90
2018-05-02T14:29:27.659Z,19.90
2018-05-02T14:32:01.353Z,19.80
2018-05-02T14:34:34.907Z,19.70
2018-05-02T14:37:08.752Z,19.80
2018-05-02T14:39:42.242Z,19.80
2018-05-02T14:42:16.538Z,19.90
2018-05-02T14:44:50.938Z,19.90
2018-05-02T14:47:24.546Z,19.80
2018-05-02T14:49:58.276Z,20.00
2018-05-02T14:52:32.580Z,20.10
2018-05-02T14:55:06.275Z,20.10
2018-05-02T14:57:39.902Z,20.20
2018-05-02T15:00:14.387Z,20.10
2018-05-02T15:02:48.322Z,20.10
2018-05-02T15:05:21.938Z,19.80
2018-05-02T15:07:55.552Z,19.70
2018-05-02T15:10:29.198Z,19.70
2018-05-02T15:13:02.739Z,19.70
2018-05-02T15:15:36.739Z,19.70
2018-05-02T15:18:11.159Z,19.70
2018-05-02T15:20:44.970Z,19.70
2018-05-02T15:23:18.771Z,19.80
2018-05-02T15:25:52.274Z,19.70
2018-05-02T15:28:25.859Z,19.80
2018-05-02T15:30:59.402Z,19.80
2018-05-02T15:33:34.010Z,19.80
2018-05-02T15:36:07.635Z,19.80
2018-05-02T15:38:41.407Z,19.70
2018-05-02T15:41:14.998Z,19.70
2018-05-02T15:43:48.501Z,19.70
2018-05-02T15:46:22.183Z,19.80
2018-05-02T15:48:55.692Z,19.60
2018-05-02T15:51:29.271Z,19.70
2018-05-02T15:54:03.011Z,19.60
2018-05-02T15:56:36.542Z,19.70
2018-05-02T15:59:11.030Z,19.60
2018-05-02T16:01:44.599Z,19.60
2018-05-02T16:04:18.334Z,19.50
2018-05-02T16:06:52.069Z,19.50
2018-05-02T16:09:25.619Z,19.30
2018-05-02T16:11:59.438Z,19.40
2018-05-02T16:14:33.006Z,19.30
2018-05-02T16:17:07.518Z,19.30
2018-05-02T16:19:41.148Z,19.30
2018-05-02T16:22:14.708Z,19.20
2018-05-02T16:24:48.395Z,19.10
2018-05-02T16:27:21.912Z,19.00
2018-05-02T16:29:55.599Z,19.00
2018-05-02T16:32:29.204Z,19.00
2018-05-02T16:35:02.754Z,18.90
2018-05-02T16:37:36.479Z,18.90
2018-05-02T16:40:10.277Z,18.90
2018-05-02T16:42:43.890Z,18.80
2018-05-02T16:45:17.446Z,18.80
2018-05-02T16:47:51.086Z,18.80
2018-05-02T16:50:25.370Z,18.80
2018-05-02T16:52:59.103Z,18.80
2018-05-02T16:55:33.110Z,18.80
2018-05-02T16:58:06.608Z,18.70
2018-05-02T17:00:40.199Z,18.70
2018-05-02T17:03:13.906Z,18.70
2018-05-02T17:05:47.437Z,18.70
2018-05-02T17:08:21.799Z,18.60
2018-05-02T17:10:55.346Z,18.60
2018-05-02T17:13:29.006Z,18.60
2018-05-02T17:16:02.743Z,18.60
2018-05-02T17:18:36.543Z,18.50
2018-05-02T17:21:10.370Z,18.40
2018-05-02T17:23:44.070Z,18.40
2018-05-02T17:26:17.655Z,18.40
2018-05-02T17:28:51.217Z,18.30
2018-05-02T17:31:24.835Z,18.30
2018-05-02T17:33:58.597Z,18.20
2018-05-02T17:36:32.352Z,18.10
2018-05-02T17:39:05.985Z,18.10
2018-05-02T17:41:39.682Z,18.00
2018-05-02T17:44:13.371Z,18.00
2018-05-02T17:46:46.970Z,18.00
2018-05-02T17:49:20.576Z,17.90
2018-05-02T17:51:54.778Z,17.90
2018-05-02T17:54:28.475Z,17.80
2018-05-02T17:57:02.197Z,17.70
2018-05-02T17:59:35.879Z,17.70
2018-05-02T18:02:09.498Z,17.70
2018-05-02T18:04:43.275Z,17.60
2018-05-02T18:07:17.859Z,17.60
2018-05-02T18:09:52.309Z,17.50
2018-05-02T18:12:26.030Z,17.50
2018-05-02T18:15:00.476Z,17.40
2018-05-02T18:17:33.983Z,17.40
2018-05-02T18:20:07.674Z,17.30
2018-05-02T18:22:42.203Z,17.30
2018-05-02T18:25:15.901Z,17.20
2018-05-02T18:27:49.509Z,17.20
2018-05-02T18:30:23.922Z,17.00
2018-05-02T18:32:57.722Z,17.00
2018-05-02T18:35:31.531Z,17.00
2018-05-02T18:38:05.042Z,16.90
2018-05-02T18:40:39.114Z,16.90
2018-05-02T18:43:12.948Z,16.80
2018-05-02T18:45:46.547Z,16.80
2018-05-02T18:48:20.156Z,16.70
2018-05-02T18:50:53.750Z,16.60
2018-05-02T18:53:27.644Z,16.60
2018-05-02T18:56:01.222Z,16.60
2018-05-02T18:58:36.286Z,16.40
2018-05-02T19:01:10.690Z,16.40
2018-05-02T19:03:45.114Z,16.40
2018-05-02T19:06:19.039Z,16.30
2018-05-02T19:08:52.843Z,16.20
2018-05-02T19:11:26.468Z,16.20
2018-05-02T19:14:01.063Z,16.20
2018-05-02T19:16:34.742Z,16.10
2018-05-02T19:19:14.063Z,16.10
2018-05-02T19:21:47.815Z,16.00
2018-05-02T19:24:21.458Z,15.90
2018-05-02T19:26:55.224Z,15.90
2018-05-02T19:29:29.054Z,15.80
2018-05-02T19:32:08.278Z,15.70
2018-05-02T19:34:41.793Z,15.70
2018-05-02T19:37:15.411Z,15.60
2018-05-02T19:39:54.670Z,15.50
2018-05-02T19:42:33.965Z,15.50
2018-05-02T19:45:08.335Z,15.30
2018-05-02T19:47:42.045Z,15.30
2018-05-02T19:50:15.746Z,15.20
2018-05-02T19:52:49.451Z,15.10
2018-05-02T19:55:23.058Z,15.10
2018-05-02T19:57:56.873Z,15.00
2018-05-02T20:00:36.395Z,14.90
2018-05-02T20:03:10.007Z,14.80
2018-05-02T20:05:43.733Z,14.70
2018-05-02T20:08:23.116Z,14.60
2018-05-02T20:11:02.464Z,14.50
2018-05-02T20:13:41.747Z,14.50
2018-05-02T20:16:15.482Z,14.40
2018-05-02T20:18:49.090Z,14.30
2018-05-02T20:21:22.821Z,14.30
2018-05-02T20:23:57.233Z,14.10
2018-05-02T20:26:31.052Z,14.10
2018-05-02T20:29:04.650Z,14.10
2018-05-02T20:31:38.171Z,14.00
2018-05-02T20:34:11.759Z,14.00
2018-05-02T20:36:45.454Z,13.90
2018-05-02T20:39:19.873Z,13.80
2018-05-02T20:41:53.487Z,13.90
2018-05-02T20:44:27.074Z,13.80
2018-05-02T20:47:00.968Z,13.80
2018-05-02T20:49:34.586Z,13.80
2018-05-02T20:52:08.144Z,13.70
2018-05-02T20:54:41.802Z,13.70
2018-05-02T20:57:15.369Z,13.60
2018-05-02T20:59:48.882Z,13.60
2018-05-02T21:02:22.487Z,13.60
2018-05-02T21:04:56.058Z,13.60
2018-05-02T21:07:29.682Z,13.60
2018-05-02T21:10:03.291Z,13.60
2018-05-02T21:12:36.886Z,13.60
2018-05-02T21:15:10.392Z,13.50
2018-05-02T21:17:43.959Z,13.50
2018-05-02T21:20:17.889Z,13.40
2018-05-02T21:22:51.406Z,13.40
2018-05-02T21:25:25.090Z,13.30
2018-05-02T21:27:58.781Z,13.20
2018-05-02T21:30:33.183Z,13.20
2018-05-02T21:33:06.918Z,13.10
2018-05-02T21:35:41.210Z,13.10
2018-05-02T21:38:14.909Z,13.10
2018-05-02T21:40:48.418Z,13.00
2018-05-02T21:43:22.063Z,13.00
2018-05-02T21:45:55.615Z,12.90
2018-05-02T21:48:29.225Z,12.90
2018-05-02T21:51:02.850Z,12.80
2018-05-02T21:53:36.954Z,12.80
2018-05-02T21:56:10.835Z,12.70
2018-05-02T21:58:44.590Z,12.70
2018-05-02T22:01:18.135Z,12.70
2018-05-02T22:03:51.826Z,12.70
2018-05-02T22:06:25.558Z,12.60
2018-05-02T22:09:00.203Z,12.50
2018-05-02T22:11:33.793Z,12.50
2018-05-02T22:14:07.367Z,12.50
2018-05-02T22:16:41.821Z,12.50
2018-05-02T22:19:15.517Z,12.50
2018-05-02T22:21:49.014Z,12.50
2018-05-02T22:24:22.630Z,12.40
2018-05-02T22:26:56.118Z,12.50
2018-05-02T22:29:29.706Z,12.60
2018-05-02T22:32:03.635Z,12.60
2018-05-02T22:34:37.335Z,12.60
2018-05-02T22:37:10.858Z,12.70
2018-05-02T22:39:44.534Z,12.80
2018-05-02T22:42:18.317Z,12.80
2018-05-02T22:44:52.043Z,12.80
2018-05-02T22:47:25.916Z,12.80
2018-05-02T22:49:59.739Z,12.70
2018-05-02T22:52:33.457Z,12.60
2018-05-02T22:55:06.987Z,12.60
2018-05-02T22:57:40.667Z,12.60
2018-05-02T23:00:14.272Z,12.50
2018-05-02T23:02:47.870Z,12.40
2018-05-02T23:05:21.384Z,12.40
2018-05-02T23:07:54.934Z,12.40
2018-05-02T23:10:28.591Z,12.30
2018-05-02T23:13:03.091Z,12.30
2018-05-02T23:15:36.669Z,12.30
2018-05-02T23:18:11.109Z,12.30
2018-05-02T23:20:46.235Z,12.30
2018-05-02T23:23:19.921Z,12.30
2018-05-02T23:25:53.557Z,12.40
2018-05-02T23:28:27.360Z,12.30
2018-05-02T23:31:01.047Z,12.30
2018-05-02T23:33:34.603Z,12.30
2018-05-02T23:36:09.077Z,12.30
2018-05-02T23:38:42.651Z,12.30
2018-05-02T23:41:16.450Z,12.20
2018-05-02T23:43:50.686Z,12.20
2018-05-02T23:46:24.614Z,12.20
2018-05-02T23:48:58.319Z,12.20
2018-05-02T23:51:32.018Z,12.20
2018-05-02T23:54:05.706Z,12.10
2018-05-02T23:56:39.308Z,12.10
2018-05-02T23:59:13.096Z,12.00
